TimeHAST,TemperatureF,Dew PointF,Humidity,Sea Level PressureIn,VisibilityMPH,Wind Direction,Wind SpeedMPH,Gust SpeedMPH,PrecipitationIn,Events,Conditions,WindDirDegrees,DateUTC
12:16 AM,48.2,46.4,93,29.83,10.0,WSW,11.5,-,N/A,,Overcast,240,2012-11-16 10:16:00
12:36 AM,48.2,46.4,93,29.81,9.0,SSW,6.9,-,N/A,,Overcast,200,2012-11-16 10:36:00
12:56 AM,46.4,44.6,93,29.79,10.0,South,9.2,-,N/A,,Overcast,180,2012-11-16 10:56:00
1:16 AM,46.4,44.6,93,29.79,10.0,SSE,6.9,-,N/A,,Overcast,150,2012-11-16 11:16:00
1:36 AM,46.4,42.8,87,29.78,8.0,South,13.8,-,N/A,,Overcast,170,2012-11-16 11:36:00
1:56 AM,46.4,44.6,93,29.76,6.0,SSW,11.5,-,N/A,,Overcast,200,2012-11-16 11:56:00
2:16 AM,46.4,42.8,87,29.76,7.0,West,8.1,-,N/A,,Overcast,270,2012-11-16 12:16:00
2:36 AM,46.4,44.6,93,29.74,9.0,South,10.4,-,N/A,,Overcast,190,2012-11-16 12:36:00
2:56 AM,46.4,44.6,93,29.71,10.0,South,8.1,-,N/A,,Mostly Cloudy,190,2012-11-16 12:56:00
3:16 AM,46.4,44.6,93,29.70,10.0,South,17.3,20.7,N/A,,Overcast,180,2012-11-16 13:16:00
3:36 AM,46.4,42.8,87,29.68,9.0,South,13.8,-,N/A,,Overcast,190,2012-11-16 13:36:00
3:56 AM,46.4,44.6,93,29.68,10.0,South,10.4,-,N/A,,Overcast,170,2012-11-16 13:56:00
4:16 AM,46.4,44.6,93,29.68,6.0,SSW,13.8,-,N/A,,Overcast,200,2012-11-16 14:16:00
4:36 AM,48.2,44.6,87,29.67,9.0,SW,17.3,23.0,N/A,,Overcast,230,2012-11-16 14:36:00
4:56 AM,48.2,44.6,87,29.66,5.0,WSW,24.2,31.1,N/A,,Overcast,240,2012-11-16 14:56:00
5:16 AM,46.4,44.6,93,29.67,4.0,WSW,21.9,27.6,N/A,,Overcast,250,2012-11-16 15:16:00
5:36 AM,46.4,44.6,93,29.67,2.5,WSW,23.0,31.1,N/A,,Overcast,250,2012-11-16 15:36:00
5:56 AM,44.6,42.8,93,29.68,10.0,West,20.7,27.6,N/A,,Overcast,260,2012-11-16 15:56:00
6:16 AM,44.6,42.8,93,29.68,5.0,West,18.4,-,N/A,,Overcast,260,2012-11-16 16:16:00
6:36 AM,44.6,42.8,93,29.63,10.0,SW,12.7,-,N/A,,Mostly Cloudy,220,2012-11-16 16:36:00
6:56 AM,44.6,42.8,93,29.65,10.0,West,13.8,-,N/A,,Mostly Cloudy,260,2012-11-16 16:56:00
7:16 AM,46.4,42.8,87,29.65,10.0,West,23.0,-,N/A,,Mostly Cloudy,270,2012-11-16 17:16:00
7:36 AM,46.4,44.6,93,29.66,10.0,West,17.3,26.5,N/A,,Mostly Cloudy,260,2012-11-16 17:36:00
7:56 AM,46.4,42.8,87,29.69,10.0,WSW,17.3,-,N/A,,Overcast,250,2012-11-16 17:56:00
8:16 AM,44.6,42.8,93,29.69,10.0,West,17.3,-,N/A,,Overcast,270,2012-11-16 18:16:00
8:36 AM,44.6,42.8,93,29.71,9.0,West,15.0,20.7,N/A,,Overcast,260,2012-11-16 18:36:00
8:56 AM,44.6,42.8,93,29.71,4.0,West,11.5,-,N/A,,Overcast,260,2012-11-16 18:56:00
9:16 AM,44.6,42.8,93,29.72,10.0,NNE,20.7,28.8,N/A,,Overcast,30,2012-11-16 19:16:00
9:36 AM,44.6,41.0,87,29.74,10.0,West,11.5,-,N/A,,Overcast,270,2012-11-16 19:36:00
9:56 AM,44.6,41.0,87,29.76,10.0,WSW,16.1,21.9,N/A,,Overcast,250,2012-11-16 19:56:00
10:16 AM,44.6,39.2,81,29.77,10.0,WSW,11.5,21.9,N/A,,Overcast,250,2012-11-16 20:16:00
10:36 AM,44.6,39.2,81,29.78,9.0,West,19.6,24.2,N/A,,Overcast,260,2012-11-16 20:36:00
10:56 AM,42.8,39.2,87,29.78,10.0,West,12.7,18.4,N/A,,Overcast,260,2012-11-16 20:56:00
11:16 AM,42.8,39.2,87,29.79,10.0,WSW,15.0,20.7,N/A,,Overcast,250,2012-11-16 21:16:00
11:36 AM,42.8,39.2,87,29.80,10.0,WSW,17.3,23.0,N/A,,Overcast,250,2012-11-16 21:36:00
11:56 AM,42.8,37.4,81,29.80,10.0,West,11.5,19.6,N/A,,Mostly Cloudy,280,2012-11-16 21:56:00
12:16 PM,44.6,37.4,76,29.79,10.0,West,12.7,-,N/A,,Clear,260,2012-11-16 22:16:00
12:36 PM,44.6,39.2,81,29.79,10.0,West,19.6,-,N/A,,Clear,260,2012-11-16 22:36:00
12:56 PM,46.4,33.8,62,29.81,10.0,West,19.6,27.6,N/A,,Partly Cloudy,280,2012-11-16 22:56:00
1:16 PM,46.4,33.8,62,29.81,10.0,WSW,11.5,-,N/A,,Clear,240,2012-11-16 23:16:00
1:36 PM,46.4,37.4,71,29.81,10.0,West,13.8,19.6,N/A,,Clear,260,2012-11-16 23:36:00
1:56 PM,46.4,39.2,76,29.83,10.0,WSW,15.0,-,N/A,,Clear,250,2012-11-16 23:56:00
2:16 PM,44.6,39.2,81,29.82,10.0,WSW,13.8,-,N/A,,Clear,250,2012-11-17 00:16:00
2:36 PM,44.6,39.2,81,29.83,10.0,West,11.5,20.7,N/A,,Scattered Clouds,260,2012-11-17 00:36:00
2:56 PM,44.6,39.2,81,29.83,10.0,WSW,20.7,-,N/A,,Partly Cloudy,250,2012-11-17 00:56:00
3:16 PM,44.6,37.4,76,29.83,10.0,WSW,17.3,-,N/A,,Clear,250,2012-11-17 01:16:00
3:36 PM,44.6,37.4,76,29.82,10.0,West,19.6,24.2,N/A,,Clear,260,2012-11-17 01:36:00
3:56 PM,44.6,37.4,76,29.82,10.0,West,18.4,24.2,N/A,,Scattered Clouds,260,2012-11-17 01:56:00
4:16 PM,44.6,37.4,76,29.82,10.0,West,17.3,26.5,N/A,,Scattered Clouds,260,2012-11-17 02:16:00
4:36 PM,42.8,37.4,81,29.81,10.0,WSW,23.0,26.5,N/A,,Clear,250,2012-11-17 02:36:00
4:56 PM,42.8,35.6,76,29.83,10.0,West,16.1,23.0,N/A,,Clear,260,2012-11-17 02:56:00
5:16 PM,42.8,37.4,81,29.84,10.0,WSW,16.1,21.9,N/A,,Partly Cloudy,250,2012-11-17 03:16:00
5:36 PM,42.8,35.6,76,29.85,10.0,West,12.7,-,N/A,,Clear,260,2012-11-17 03:36:00
5:56 PM,41.0,35.6,81,29.84,10.0,West,20.7,25.3,N/A,,Clear,260,2012-11-17 03:56:00
6:16 PM,41.0,37.4,87,29.82,10.0,WSW,25.3,31.1,N/A,,Clear,250,2012-11-17 04:16:00
6:36 PM,41.0,35.6,81,29.84,10.0,West,17.3,31.1,N/A,,Clear,260,2012-11-17 04:36:00
6:56 PM,39.2,35.6,87,29.85,10.0,NW,6.9,19.6,N/A,,Clear,310,2012-11-17 04:56:00
7:16 PM,39.2,35.6,87,29.84,10.0,WSW,12.7,20.7,N/A,,Clear,250,2012-11-17 05:16:00
7:36 PM,39.2,35.6,87,29.85,10.0,North,5.8,-,N/A,,Clear,350,2012-11-17 05:36:00
7:56 PM,39.2,35.6,87,29.85,10.0,West,5.8,-,N/A,,Mostly Cloudy,260,2012-11-17 05:56:00
8:16 PM,39.2,35.6,87,29.86,10.0,WSW,6.9,-,N/A,,Overcast,250,2012-11-17 06:16:00
8:36 PM,41.0,35.6,81,29.86,10.0,WSW,11.5,19.6,N/A,,Mostly Cloudy,250,2012-11-17 06:36:00
8:56 PM,41.0,35.6,81,29.87,10.0,West,10.4,-,N/A,,Overcast,260,2012-11-17 06:56:00
9:16 PM,39.2,33.8,81,29.86,10.0,WSW,20.7,25.3,N/A,,Mostly Cloudy,250,2012-11-17 07:16:00
9:36 PM,39.2,33.8,81,29.85,10.0,WSW,23.0,27.6,N/A,,Partly Cloudy,250,2012-11-17 07:36:00
9:56 PM,39.2,33.8,81,29.86,10.0,West,17.3,27.6,N/A,,Clear,260,2012-11-17 07:56:00
10:16 PM,39.2,33.8,81,29.86,10.0,WSW,16.1,24.2,N/A,,Clear,250,2012-11-17 08:16:00
10:36 PM,39.2,33.8,81,29.86,10.0,WSW,15.0,19.6,N/A,,Partly Cloudy,250,2012-11-17 08:36:00
10:56 PM,39.2,33.8,81,29.86,10.0,West,20.7,26.5,N/A,,Partly Cloudy,260,2012-11-17 08:56:00
11:16 PM,39.2,33.8,81,29.86,10.0,WSW,19.6,24.2,N/A,,Clear,250,2012-11-17 09:16:00
11:36 PM,39.2,33.8,81,29.86,10.0,WSW,19.6,25.3,N/A,,Clear,250,2012-11-17 09:36:00
11:56 PM,39.2,33.8,81,29.87,10.0,West,17.3,24.2,N/A,,Partly Cloudy,260,2012-11-17 09:56:00